Angleton, Texas
Current Conditions -  °F | °C
As of 4:53 AM on Saturday 22 Nov 2014 (Local Time) from KLBX Reporting Station
Clear Clear  
Wind Chill: 63°   Ceiling: Unl
Heat Index: 63°   Visibility: 10mi
Dew Point: 62°   Wind: 7mph
Humidity: 97%   Direction: 100°E
Pressure: 30.04"   Gusts: NA
Location:  29.16°N, 95.43°W
Report Text: KLBX 221053Z AUTO 10006KT 10SM CLR 17/17 A3004 RMK AO2 SLP173 T01720167
Loading
Personal Weather Stations






























Interactive Weather Map New forecast layout! Learn more

10-Day Weather Forecast

Advertisements
Track Severe Weather on mobile